Time;durP1;ratioP1;P1;durP2;ratioP2;P2;SDS_P1;SDS_P2;PMS_P1;PMS_P2;Temp;Humidity;BMP_temperature;BMP_pressure;BME280_temperature;BME280_humidity;BME280_pressure;Samples;Min_cycle;Max_cycle;Signal;HPM_P1;HPM_P2
2022/04/29 00:00:38;;;;;;;9.00;3.00;;;6.30;99.90;;;;;;5039955;28;20526;-36
2022/04/29 00:03:07;;;;;;;8.17;3.27;;;6.20;99.90;;;;;;5039398;28;20045;-35
2022/04/29 00:05:37;;;;;;;7.77;3.17;;;6.20;99.90;;;;;;5038653;28;20072;-35
2022/04/29 00:08:04;;;;;;;8.07;3.13;;;6.20;99.90;;;;;;5024553;28;20044;-35
2022/04/29 00:10:30;;;;;;;6.67;3.10;;;6.20;99.90;;;;;;5038502;28;20496;-36
2022/04/29 00:12:56;;;;;;;9.47;3.33;;;6.20;99.90;;;;;;5038012;28;20068;-35
2022/04/29 00:15:21;;;;;;;9.00;3.30;;;6.10;99.90;;;;;;5041036;28;20049;-35
2022/04/29 00:17:48;;;;;;;7.70;3.30;;;6.10;99.90;;;;;;5021194;28;21560;-35
2022/04/29 00:20:14;;;;;;;9.60;3.07;;;6.20;99.90;;;;;;5039304;28;20040;-35
2022/04/29 00:22:41;;;;;;;10.07;3.03;;;6.10;99.90;;;;;;5036239;28;20037;-35
2022/04/29 00:25:08;;;;;;;7.37;2.90;;;6.10;99.90;;;;;;5038699;28;20070;-35
2022/04/29 00:27:34;;;;;;;9.63;3.10;;;6.10;99.90;;;;;;5022553;28;20056;-35
2022/04/29 00:30:00;;;;;;;7.30;3.20;;;6.10;99.90;;;;;;5038044;28;20472;-35
2022/04/29 00:32:26;;;;;;;8.93;3.63;;;6.10;99.90;;;;;;5040219;28;20151;-35
2022/04/29 00:34:52;;;;;;;6.27;3.50;;;6.10;99.90;;;;;;5036123;28;20120;-35
2022/04/29 00:37:18;;;;;;;10.50;3.77;;;6.20;99.90;;;;;;5025916;28;20037;-35
2022/04/29 00:39:44;;;;;;;11.00;4.30;;;6.10;99.90;;;;;;5035923;28;20515;-35
2022/04/29 00:42:15;;;;;;;10.77;3.63;;;6.00;99.90;;;;;;5037076;28;20073;-35
2022/04/29 00:44:42;;;;;;;10.35;3.45;;;6.10;99.90;;;;;;5035387;28;20052;-35
2022/04/29 00:47:13;;;;;;;9.53;3.50;;;6.10;99.90;;;;;;5021938;28;20052;-35
2022/04/29 00:49:39;;;;;;;10.07;3.50;;;6.00;99.90;;;;;;5038323;28;20040;-35
2022/04/29 00:52:09;;;;;;;11.93;4.10;;;6.00;99.90;;;;;;5039086;28;20127;-36
2022/04/29 00:54:37;;;;;;;10.00;3.77;;;6.00;99.90;;;;;;5037963;28;20210;-36
2022/04/29 00:57:07;;;;;;;12.67;3.73;;;5.90;99.90;;;;;;5022166;28;21098;-35
2022/04/29 00:59:54;;;;;;;13.17;4.10;;;5.90;99.90;;;;;;5038839;28;20052;-35
2022/04/29 01:02:21;;;;;;;9.97;4.37;;;5.90;99.90;;;;;;5039260;28;20545;-35
2022/04/29 01:05:07;;;;;;;11.73;4.23;;;6.10;99.90;;;;;;5040493;28;20037;-36
2022/04/29 01:07:33;;;;;;;10.77;4.50;;;5.90;99.90;;;;;;5028628;28;20504;-36
2022/04/29 01:09:59;;;;;;;11.30;4.73;;;5.90;99.90;;;;;;5044493;28;20087;-35
2022/04/29 01:12:27;;;;;;;13.37;4.87;;;5.90;99.90;;;;;;5042264;28;20160;-35
2022/04/29 01:14:58;;;;;;;9.77;4.80;;;5.90;99.90;;;;;;5044075;28;20139;-35
2022/04/29 01:17:25;;;;;;;;;;;5.90;99.90;;;;;;5028014;28;20083;-35
2022/04/29 01:19:51;;;;;;;9.77;4.90;;;5.90;99.90;;;;;;5043527;28;19931;-35
2022/04/29 01:22:16;;;;;;;11.33;4.47;;;5.90;99.90;;;;;;5043431;28;20510;-35
2022/04/29 01:24:42;;;;;;;6.83;4.53;;;5.90;99.90;;;;;;5042430;28;20132;-36
2022/04/29 01:27:10;;;;;;;11.10;4.83;;;5.90;99.90;;;;;;5021237;28;20045;-36
2022/04/29 01:29:40;;;;;;;12.60;4.50;;;5.90;99.90;;;;;;5041848;28;20123;-35
2022/04/29 01:32:09;;;;;;;14.93;5.10;;;5.90;99.90;;;;;;5041508;28;20037;-35
2022/04/29 01:34:35;;;;;;;7.43;5.00;;;5.90;99.90;;;;;;5041709;28;20488;-36
2022/04/29 01:37:01;;;;;;;10.70;4.93;;;5.90;99.90;;;;;;5027924;28;20037;-35
2022/04/29 01:39:27;;;;;;;9.63;5.37;;;5.90;99.90;;;;;;5042640;28;20043;-35
2022/04/29 01:41:52;;;;;;;9.67;4.17;;;5.90;99.90;;;;;;5038649;28;20149;-35
2022/04/29 01:44:18;;;;;;;7.73;4.63;;;5.90;99.90;;;;;;5040282;28;20137;-35
2022/04/29 01:46:44;;;;;;;11.23;4.90;;;5.90;99.90;;;;;;5027730;28;20057;-35
2022/04/29 01:49:10;;;;;;;10.17;4.70;;;5.90;99.90;;;;;;5039772;28;20468;-35
2022/04/29 01:51:35;;;;;;;10.53;4.80;;;5.90;99.90;;;;;;5040579;28;20508;-35
2022/04/29 01:54:01;;;;;;;16.30;5.03;;;5.90;99.90;;;;;;5040679;28;20059;-35
2022/04/29 01:56:33;;;;;;;12.80;5.13;;;5.90;99.90;;;;;;5029602;28;20044;-36
2022/04/29 01:59:00;;;;;;;9.53;5.30;;;5.80;99.90;;;;;;5039565;28;20195;-35
2022/04/29 02:01:27;;;;;;;11.00;5.40;;;5.80;99.90;;;;;;5042584;28;20036;-35
2022/04/29 02:03:54;;;;;;;11.63;5.17;;;5.80;99.90;;;;;;5037759;28;20049;-35
2022/04/29 02:06:20;;;;;;;8.20;4.73;;;5.80;99.90;;;;;;5030149;28;20133;-36
2022/04/29 02:08:45;;;;;;;9.20;5.40;;;5.80;99.90;;;;;;5035191;28;20388;-35
2022/04/29 02:11:11;;;;;;;10.37;5.30;;;5.80;99.90;;;;;;5041018;28;20064;-35
2022/04/29 02:13:38;;;;;;;8.70;4.90;;;5.80;99.90;;;;;;5039545;28;20044;-35
2022/04/29 02:16:05;;;;;;;12.43;4.97;;;5.80;99.90;;;;;;5042853;28;20044;-35
2022/04/29 02:18:30;;;;;;;8.60;4.83;;;6.00;99.90;;;;;;5024566;28;20132;-35
2022/04/29 02:20:56;;;;;;;8.33;4.90;;;5.80;99.90;;;;;;5039146;28;20559;-35
2022/04/29 02:23:22;;;;;;;7.93;4.73;;;5.80;99.90;;;;;;5040356;28;20041;-35
2022/04/29 02:25:48;;;;;;;8.37;4.93;;;5.80;99.90;;;;;;5036939;28;20466;-35
2022/04/29 02:28:14;;;;;;;9.07;4.43;;;5.80;99.90;;;;;;5026052;28;20084;-35
2022/04/29 02:30:40;;;;;;;12.50;5.10;;;5.80;99.90;;;;;;5037965;28;20084;-35
2022/04/29 02:33:07;;;;;;;7.73;4.73;;;5.80;99.90;;;;;;5040969;28;20130;-35
2022/04/29 02:35:33;;;;;;;11.60;5.50;;;5.70;99.90;;;;;;5039963;28;20036;-35
2022/04/29 02:37:58;;;;;;;8.40;5.00;;;5.70;99.90;;;;;;5024849;28;20051;-35
2022/04/29 02:40:24;;;;;;;8.93;4.67;;;5.70;99.90;;;;;;5039584;28;20491;-35
2022/04/29 02:42:50;;;;;;;8.37;4.77;;;5.70;99.90;;;;;;5035643;28;20405;-35
2022/04/29 02:45:16;;;;;;;10.33;4.60;;;5.80;99.90;;;;;;5041366;28;20047;-35
2022/04/29 02:47:42;;;;;;;8.27;4.40;;;5.70;99.90;;;;;;5026812;28;20056;-35
2022/04/29 02:50:08;;;;;;;9.57;4.87;;;5.70;99.90;;;;;;5043132;28;20033;-35
2022/04/29 02:52:34;;;;;;;10.97;4.90;;;5.70;99.90;;;;;;5040568;28;20563;-35
2022/04/29 02:55:00;;;;;;;8.23;4.20;;;5.60;99.90;;;;;;5038145;28;20037;-35
2022/04/29 02:57:26;;;;;;;9.80;4.67;;;5.60;99.90;;;;;;5025077;28;20055;-35
2022/04/29 02:59:52;;;;;;;8.43;4.20;;;5.60;99.90;;;;;;5038383;28;20037;-35
2022/04/29 03:02:17;;;;;;;7.80;4.43;;;5.60;99.90;;;;;;5038140;28;20381;-35
2022/04/29 03:04:43;;;;;;;10.13;4.17;;;5.60;99.90;;;;;;5038933;28;20551;-35
2022/04/29 03:07:09;;;;;;;10.60;4.80;;;5.60;99.90;;;;;;5024420;28;20049;-35
2022/04/29 03:09:34;;;;;;;9.30;4.60;;;5.50;99.90;;;;;;5038493;28;20036;-35
2022/04/29 03:12:00;;;;;;;6.70;4.57;;;5.50;99.90;;;;;;5035828;28;20131;-35
2022/04/29 03:14:26;;;;;;;10.07;4.27;;;5.50;99.90;;;;;;5039701;28;20040;-35
2022/04/29 03:16:51;;;;;;;8.03;4.43;;;5.40;99.90;;;;;;5022400;28;20258;-35
2022/04/29 03:19:17;;;;;;;8.70;4.80;;;5.40;99.90;;;;;;5037678;28;20087;-35
2022/04/29 03:21:43;;;;;;;8.03;3.97;;;5.40;99.90;;;;;;5039219;28;20524;-35
2022/04/29 03:24:09;;;;;;;9.07;4.90;;;5.30;99.90;;;;;;5040369;28;20051;-35
2022/04/29 03:26:35;;;;;;;10.30;4.83;;;5.30;99.90;;;;;;5025471;28;20063;-35
2022/04/29 03:29:01;;;;;;;9.63;4.70;;;5.30;99.90;;;;;;5036669;28;20045;-35
2022/04/29 03:31:27;;;;;;;8.77;4.80;;;5.30;99.90;;;;;;5042667;28;20041;-35
2022/04/29 03:33:53;;;;;;;7.87;4.50;;;5.30;99.90;;;;;;5040026;28;20645;-35
2022/04/29 03:36:18;;;;;;;13.33;5.23;;;5.20;99.90;;;;;;5030749;28;20482;-35
2022/04/29 03:38:44;;;;;;;8.60;5.03;;;5.20;99.90;;;;;;5036961;28;20078;-35
2022/04/29 03:41:12;;;;;;;11.37;4.73;;;5.20;99.90;;;;;;5041808;28;20641;-35
2022/04/29 03:43:38;;;;;;;7.93;5.13;;;5.20;99.90;;;;;;5040182;28;20048;-35
2022/04/29 03:46:05;;;;;;;9.23;5.43;;;5.20;99.90;;;;;;5041542;28;20051;-35
2022/04/29 03:51:15;;;;;;;11.17;5.47;;;5.20;99.90;;;;;;5040327;28;20187;-35
2022/04/29 03:53:41;;;;;;;12.63;5.33;;;5.30;99.90;;;;;;5041394;28;20131;-35
2022/04/29 03:56:06;;;;;;;8.97;5.37;;;5.20;99.90;;;;;;5037199;28;20065;-35
2022/04/29 03:58:32;;;;;;;14.03;5.80;;;5.20;99.90;;;;;;5029461;28;20044;-35
2022/04/29 04:00:58;;;;;;;11.43;6.40;;;5.20;99.90;;;;;;5041576;28;20048;-35
2022/04/29 04:03:23;;;;;;;12.60;6.40;;;5.20;99.90;;;;;;5041037;28;20045;-35
2022/04/29 04:08:34;;;;;;;14.60;6.63;;;5.20;99.90;;;;;;5026610;28;20547;-35
2022/04/29 04:11:00;;;;;;;16.00;6.90;;;5.30;99.90;;;;;;5042375;28;20049;-35
2022/04/29 04:13:25;;;;;;;8.43;6.17;;;5.30;99.90;;;;;;5040379;28;20048;-35
2022/04/29 04:15:51;;;;;;;10.73;6.33;;;5.30;99.90;;;;;;5041791;28;20068;-35
2022/04/29 04:18:17;;;;;;;13.17;6.40;;;5.30;99.90;;;;;;5025026;28;20049;-35
2022/04/29 04:20:43;;;;;;;9.83;7.17;;;5.40;99.90;;;;;;5040560;28;20037;-35
2022/04/29 04:23:09;;;;;;;12.47;6.40;;;5.40;99.90;;;;;;5040553;28;20053;-35
2022/04/29 04:25:34;;;;;;;11.20;6.93;;;5.40;99.90;;;;;;5041134;28;20500;-35
2022/04/29 04:28:00;;;;;;;9.50;6.57;;;5.50;99.90;;;;;;5025362;28;20094;-35
2022/04/29 04:30:26;;;;;;;9.23;6.67;;;5.50;99.90;;;;;;5039931;28;20140;-35
2022/04/29 04:32:52;;;;;;;11.27;6.13;;;5.50;99.90;;;;;;5037551;28;20091;-35
2022/04/29 04:35:17;;;;;;;13.70;7.10;;;5.60;99.90;;;;;;5043133;28;20106;-35
2022/04/29 04:37:44;;;;;;;11.40;6.67;;;5.50;99.90;;;;;;5027267;28;20472;-35
2022/04/29 04:40:10;;;;;;;13.73;6.70;;;5.60;99.90;;;;;;5041952;28;20098;-35
2022/04/29 04:42:46;;;;;;;14.63;6.83;;;5.60;99.90;;;;;;5041127;28;20136;-35
2022/04/29 04:45:12;;;;;;;10.83;6.77;;;5.70;99.90;;;;;;5042993;28;20048;-36
2022/04/29 04:47:39;;;;;;;13.63;6.73;;;5.70;99.90;;;;;;5027760;28;20154;-35
2022/04/29 04:50:05;;;;;;;14.00;7.47;;;5.70;99.90;;;;;;5040431;28;20117;-35
2022/04/29 04:52:31;;;;;;;16.47;7.37;;;5.80;99.90;;;;;;5040875;28;20043;-35
2022/04/29 04:54:57;;;;;;;12.63;7.43;;;5.80;99.90;;;;;;5041891;28;20048;-35
2022/04/29 04:57:23;;;;;;;12.87;7.00;;;5.90;99.90;;;;;;5026456;28;20033;-36
2022/04/29 04:59:48;;;;;;;13.33;6.70;;;5.90;99.90;;;;;;5041814;28;20056;-35
2022/04/29 05:02:14;;;;;;;12.80;6.70;;;5.90;99.90;;;;;;5044197;28;20587;-35
2022/04/29 05:04:39;;;;;;;10.37;6.57;;;6.00;99.90;;;;;;5043362;28;20586;-35
2022/04/29 05:07:05;;;;;;;10.70;6.10;;;6.10;99.90;;;;;;5027129;28;20408;-36
2022/04/29 05:09:31;;;;;;;9.40;5.63;;;6.10;99.90;;;;;;5043453;28;20055;-35
2022/04/29 05:11:57;;;;;;;11.30;5.37;;;6.20;99.90;;;;;;5041983;28;20505;-36
2022/04/29 05:14:22;;;;;;;11.20;5.43;;;6.20;99.90;;;;;;5042767;28;20049;-35
2022/04/29 05:16:48;;;;;;;12.20;5.53;;;6.30;99.90;;;;;;5025319;28;20292;-35
2022/04/29 05:19:14;;;;;;;10.33;4.80;;;6.30;99.90;;;;;;5042677;28;20630;-35
2022/04/29 05:21:40;;;;;;;11.00;4.70;;;6.30;99.90;;;;;;5042595;28;20124;-35
2022/04/29 05:24:06;;;;;;;6.17;4.77;;;6.40;99.90;;;;;;5038157;28;20048;-39
2022/04/29 05:26:32;;;;;;;10.80;4.80;;;6.50;99.90;;;;;;5028024;28;20167;-36
2022/04/29 05:28:58;;;;;;;8.83;4.47;;;6.50;99.90;;;;;;5039459;28;20124;-35
2022/04/29 05:31:24;;;;;;;10.77;5.10;;;6.60;99.90;;;;;;5043150;28;20075;-36
2022/04/29 05:33:50;;;;;;;9.30;5.27;;;6.70;99.90;;;;;;5039886;28;20037;-35
2022/04/29 05:36:16;;;;;;;9.40;5.03;;;6.80;99.90;;;;;;5032702;28;20546;-36
2022/04/29 05:44:11;;;;;;;9.37;4.97;;;6.80;99.90;;;;;;5040149;28;20051;-35
2022/04/29 05:46:37;;;;;;;12.07;5.13;;;6.90;99.90;;;;;;5028401;28;20033;-36
2022/04/29 05:49:03;;;;;;;11.57;4.70;;;6.90;99.90;;;;;;5037495;28;20091;-35
2022/04/29 05:51:29;;;;;;;11.13;5.07;;;7.00;99.90;;;;;;5040388;28;20452;-35
2022/04/29 05:53:55;;;;;;;11.10;4.67;;;7.00;99.90;;;;;;5039917;28;20075;-36
2022/04/29 05:56:20;;;;;;;9.40;4.97;;;7.10;99.90;;;;;;5030600;28;20425;-36
2022/04/29 05:58:46;;;;;;;11.47;4.23;;;7.10;99.90;;;;;;5036552;28;20052;-35
2022/04/29 06:01:12;;;;;;;8.60;4.23;;;7.10;99.90;;;;;;5042237;28;20140;-36
2022/04/29 06:03:37;;;;;;;9.53;4.10;;;7.20;99.90;;;;;;5019318;28;20055;-36
2022/04/29 06:06:04;;;;;;;7.53;3.87;;;7.20;99.90;;;;;;5042130;28;20440;-36
2022/04/29 06:08:29;;;;;;;8.80;4.03;;;7.30;99.90;;;;;;5025469;28;20529;-36
2022/04/29 06:10:55;;;;;;;6.60;4.07;;;7.30;99.90;;;;;;5044145;28;20083;-36
2022/04/29 06:13:23;;;;;;;6.23;3.63;;;7.40;99.90;;;;;;5040276;28;20415;-36
2022/04/29 06:15:48;;;;;;;7.43;4.37;;;7.40;99.90;;;;;;5041949;28;20237;-36
2022/04/29 06:18:14;;;;;;;8.50;4.27;;;7.50;99.90;;;;;;5026757;28;20083;-36
2022/04/29 06:20:40;;;;;;;8.93;4.10;;;7.50;99.90;;;;;;5042468;28;20072;-36
2022/04/29 06:23:06;;;;;;;14.07;4.40;;;7.60;99.90;;;;;;5040082;28;20569;-36
2022/04/29 06:25:31;;;;;;;8.57;4.13;;;7.60;99.90;;;;;;5040369;28;20037;-36
2022/04/29 06:27:57;;;;;;;7.73;3.73;;;7.70;99.90;;;;;;5025539;28;20091;-36
2022/04/29 06:30:23;;;;;;;7.40;3.80;;;7.80;99.90;;;;;;5042385;28;20053;-36
2022/04/29 06:32:53;;;;;;;8.30;3.40;;;7.80;99.90;;;;;;5040322;28;20053;-35
2022/04/29 06:35:19;;;;;;;10.37;3.30;;;7.90;99.90;;;;;;5043052;28;20106;-36
2022/04/29 06:37:44;;;;;;;9.17;3.30;;;7.90;99.90;;;;;;5025825;28;20048;-35
2022/04/29 06:40:11;;;;;;;8.90;3.23;;;8.00;99.90;;;;;;5043211;28;20075;-36
2022/04/29 06:42:46;;;;;;;6.83;3.10;;;8.00;99.90;;;;;;5041228;28;20044;-36
2022/04/29 06:45:14;;;;;;;7.87;2.90;;;8.10;99.90;;;;;;5042187;28;20674;-36
2022/04/29 06:47:40;;;;;;;7.93;3.60;;;8.30;99.90;;;;;;5026350;28;20053;-36
2022/04/29 06:50:06;;;;;;;8.67;3.37;;;8.20;99.90;;;;;;5039387;28;20080;-36
2022/04/29 06:52:32;;;;;;;6.93;2.97;;;8.30;99.90;;;;;;5039765;28;20041;-36
2022/04/29 06:54:57;;;;;;;8.53;3.30;;;8.30;99.90;;;;;;5038665;28;20511;-36
2022/04/29 06:57:23;;;;;;;11.27;3.27;;;8.40;99.90;;;;;;5024259;28;20433;-36
2022/04/29 06:59:51;;;;;;;7.33;3.03;;;8.40;99.90;;;;;;5041586;28;20447;-36
2022/04/29 07:02:17;;;;;;;9.60;2.73;;;8.50;99.90;;;;;;5021881;28;20049;-36
2022/04/29 07:04:43;;;;;;;9.10;2.63;;;8.50;99.90;;;;;;5039828;28;20072;-36
2022/04/29 07:07:12;;;;;;;6.63;2.40;;;8.60;99.90;;;;;;5009085;28;20069;-36
2022/04/29 07:09:39;;;;;;;5.77;2.10;;;8.70;99.90;;;;;;5039757;28;20110;-36
2022/04/29 07:12:06;;;;;;;7.73;2.57;;;8.70;99.90;;;;;;5022521;28;20403;-35
2022/04/29 07:14:32;;;;;;;6.20;2.13;;;8.70;99.90;;;;;;5040471;28;20742;-36
2022/04/29 07:16:57;;;;;;;6.63;2.43;;;8.80;99.90;;;;;;5024862;28;20407;-35
2022/04/29 07:19:23;;;;;;;8.20;2.70;;;8.80;99.90;;;;;;5041540;28;20068;-36
2022/04/29 07:21:49;;;;;;;8.13;2.27;;;8.80;99.90;;;;;;5041089;28;20131;-35
2022/04/29 07:24:14;;;;;;;6.70;1.70;;;8.90;99.90;;;;;;5037277;28;20468;-35
2022/04/29 07:26:40;;;;;;;6.13;2.17;;;8.90;99.90;;;;;;5022927;28;20581;-36
2022/04/29 07:29:07;;;;;;;5.63;1.97;;;8.90;99.90;;;;;;5040861;28;20106;-35
2022/04/29 07:31:33;;;;;;;5.23;1.87;;;8.90;99.90;;;;;;5044068;28;20056;-36
2022/04/29 07:33:59;;;;;;;7.20;2.17;;;8.90;99.90;;;;;;5039604;28;20045;-35
2022/04/29 07:41:54;;;;;;;5.50;2.40;;;9.00;99.90;;;;;;5040466;28;20071;-36
2022/04/29 07:44:20;;;;;;;4.40;2.50;;;9.00;99.90;;;;;;5040949;28;20504;-35
2022/04/29 07:46:48;;;;;;;7.10;2.23;;;9.10;99.90;;;;;;5026780;28;20048;-36
2022/04/29 07:49:14;;;;;;;4.73;2.20;;;9.10;99.90;;;;;;5039202;28;20506;-35
2022/04/29 07:51:40;;;;;;;5.30;2.23;;;9.10;99.90;;;;;;5040518;28;20064;-35
2022/04/29 07:54:06;;;;;;;6.67;2.20;;;9.20;99.90;;;;;;5040015;28;20047;-35
2022/04/29 07:56:33;;;;;;;6.73;2.60;;;9.20;99.90;;;;;;5028038;28;20045;-36
2022/04/29 07:58:59;;;;;;;9.30;2.33;;;9.20;99.90;;;;;;5038420;28;20087;-36
2022/04/29 08:01:27;;;;;;;4.87;2.70;;;9.20;99.90;;;;;;5040522;28;20052;-36
2022/04/29 08:03:54;;;;;;;4.73;2.23;;;9.30;99.90;;;;;;5037581;28;20572;-35
2022/04/29 08:06:20;;;;;;;5.33;2.23;;;9.20;99.90;;;;;;5031381;28;20053;-36
2022/04/29 08:08:46;;;;;;;5.97;2.53;;;9.20;99.90;;;;;;5050756;28;20488;-35
2022/04/29 08:11:12;;;;;;;8.30;2.40;;;9.30;99.90;;;;;;5042280;28;20041;-36
2022/04/29 08:13:38;;;;;;;6.43;2.60;;;9.30;99.90;;;;;;5041421;28;20581;-36
2022/04/29 08:16:05;;;;;;;6.57;3.20;;;9.30;99.90;;;;;;5044246;28;20051;-36
2022/04/29 08:18:32;;;;;;;5.50;2.50;;;9.30;99.90;;;;;;5030539;28;20131;-36
2022/04/29 08:20:57;;;;;;;5.30;2.70;;;9.40;99.90;;;;;;5045095;28;20037;-35
2022/04/29 08:23:23;;;;;;;6.37;3.03;;;9.40;99.90;;;;;;5043182;28;20091;-35
2022/04/29 08:25:49;;;;;;;11.07;2.73;;;9.50;99.90;;;;;;5043495;28;20148;-35
2022/04/29 08:28:15;;;;;;;5.53;2.43;;;9.50;99.90;;;;;;5028790;28;20125;-35
2022/04/29 08:30:41;;;;;;;6.10;2.87;;;9.50;99.90;;;;;;5045177;28;20478;-36
2022/04/29 08:33:14;;;;;;;7.07;2.60;;;9.60;99.90;;;;;;5042623;28;20037;-36
2022/04/29 08:35:40;;;;;;;4.83;2.60;;;9.60;99.90;;;;;;5043845;28;20045;-36
2022/04/29 08:38:10;;;;;;;5.30;2.93;;;9.70;99.90;;;;;;5029556;28;20519;-36
2022/04/29 08:40:41;;;;;;;6.13;2.70;;;9.70;99.90;;;;;;5042857;28;20212;-36
2022/04/29 08:43:07;;;;;;;5.40;2.30;;;9.90;99.90;;;;;;5042448;28;20131;-36
2022/04/29 08:45:33;;;;;;;9.23;2.60;;;9.90;99.90;;;;;;5043817;28;20174;-36
2022/04/29 08:47:59;;;;;;;7.00;2.50;;;9.80;99.90;;;;;;5026016;28;20129;-36
2022/04/29 08:50:26;;;;;;;6.27;2.10;;;9.90;99.90;;;;;;5041799;28;20083;-35
2022/04/29 08:52:54;;;;;;;4.40;2.10;;;9.90;99.90;;;;;;5023521;28;20488;-36
2022/04/29 09:00:49;;;;;;;3.23;1.93;;;10.10;99.90;;;;;;5042126;28;20052;-36
2022/04/29 09:03:18;;;;;;;5.57;2.10;;;10.10;99.90;;;;;;5041902;28;20479;-36
2022/04/29 09:05:45;;;;;;;8.33;2.30;;;10.20;99.90;;;;;;5044902;28;20048;-36
2022/04/29 09:08:21;;;;;;;4.82;2.05;;;10.20;99.90;;;;;;5028195;28;20044;-36
2022/04/29 09:10:56;;;;;;;6.03;2.38;;;10.20;99.90;;;;;;5043601;28;20044;-36
2022/04/29 09:13:26;;;;;;;4.72;2.47;;;10.30;99.90;;;;;;5041607;28;20045;-36
2022/04/29 09:15:58;;;;;;;3.28;2.47;;;10.30;99.90;;;;;;5044348;28;20393;-36
2022/04/29 09:18:45;;;;;;;5.83;2.50;;;10.30;99.90;;;;;;5028228;28;20033;-36
2022/04/29 09:21:15;;;;;;;6.93;2.60;;;10.40;99.90;;;;;;5044007;28;20194;-36
2022/04/29 09:23:46;;;;;;;3.70;1.85;;;10.40;99.90;;;;;;5043192;28;20195;-36
2022/04/29 09:26:26;;;;;;;4.70;2.30;;;10.40;99.90;;;;;;5035024;28;20075;-37
2022/04/29 09:29:08;;;;;;;6.90;2.90;;;10.40;99.90;;;;;;5038453;28;20073;-36
2022/04/29 09:31:49;;;;;;;6.50;3.45;;;10.40;99.90;;;;;;5046328;28;20140;-36
2022/04/29 09:34:14;;;;;;;5.25;2.42;;;10.50;99.90;;;;;;5041290;28;20040;-36
2022/04/29 09:36:40;;;;;;;4.67;2.50;;;10.40;99.90;;;;;;5030962;28;20045;-36
2022/04/29 09:42:05;;;;;;;8.57;3.53;;;10.40;99.90;;;;;;5042458;28;20091;-36
2022/04/29 09:44:32;;;;;;;6.68;2.70;;;10.40;99.90;;;;;;5042731;28;20056;-36
2022/04/29 09:47:10;;;;;;;6.97;2.97;;;10.40;99.90;;;;;;5028259;28;20535;-36
2022/04/29 09:49:36;;;;;;;6.30;2.80;;;10.40;99.90;;;;;;5024268;28;20060;-36
2022/04/29 09:52:03;;;;;;;7.83;2.97;;;10.40;99.90;;;;;;5043236;28;20041;-36
2022/04/29 09:54:31;;;;;;;4.33;2.33;;;10.40;99.90;;;;;;5042646;28;20079;-36
2022/04/29 09:57:07;;;;;;;5.90;2.92;;;10.40;99.90;;;;;;5028362;28;20494;-36
2022/04/29 09:59:38;;;;;;;6.47;3.50;;;10.40;99.90;;;;;;5043530;28;20103;-36
2022/04/29 10:02:05;;;;;;;7.35;3.25;;;10.50;99.90;;;;;;5042963;28;20072;-36
2022/04/29 10:04:34;;;;;;;5.75;2.83;;;10.40;99.90;;;;;;5043108;28;20408;-35
2022/04/29 10:07:03;;;;;;;7.72;3.00;;;10.40;99.90;;;;;;5028481;28;20414;-35
2022/04/29 10:09:32;;;;;;;7.57;2.30;;;10.40;99.90;;;;;;5042562;28;20056;-35
2022/04/29 10:11:59;;;;;;;7.07;2.30;;;10.40;99.90;;;;;;5044138;28;20049;-35
2022/04/29 10:14:28;;;;;;;6.43;3.28;;;10.40;99.90;;;;;;5042600;28;20040;-36
2022/04/29 10:22:53;;;;;;;5.50;2.75;;;10.30;99.90;;;;;;5040889;28;20106;-35
2022/04/29 10:25:21;;;;;;;5.93;3.33;;;10.30;99.90;;;;;;5041187;28;20047;-35
2022/04/29 10:27:49;;;;;;;4.45;2.63;;;10.30;99.90;;;;;;5026596;28;20048;-35
2022/04/29 10:30:35;;;;;;;8.13;2.90;;;10.30;99.90;;;;;;5042893;28;20553;-35
2022/04/29 10:33:08;;;;;;;8.50;3.37;;;10.30;99.90;;;;;;5041211;28;20045;-35
2022/04/29 10:35:43;;;;;;;6.77;3.33;;;10.30;99.90;;;;;;5057728;28;20040;-35
2022/04/29 10:38:26;;;;;;;6.10;3.27;;;10.30;99.90;;;;;;5025374;28;20040;-35
2022/04/29 10:41:14;;;;;;;6.63;3.00;;;10.30;99.90;;;;;;5039759;28;20515;-35
2022/04/29 10:44:00;;;;;;;4.73;2.37;;;10.30;99.90;;;;;;5038747;28;20136;-35
2022/04/29 10:46:39;;;;;;;8.67;2.70;;;10.30;99.90;;;;;;5025202;28;20526;-36
2022/04/29 10:49:25;;;;;;;5.63;2.60;;;10.40;99.90;;;;;;5039672;28;20037;-35
2022/04/29 10:51:54;;;;;;;6.37;2.67;;;10.40;99.90;;;;;;5040841;28;20061;-35
2022/04/29 10:54:34;;;;;;;8.60;2.33;;;10.50;99.90;;;;;;5040567;28;20412;-35
2022/04/29 10:57:06;;;;;;;6.78;2.70;;;10.50;99.90;;;;;;5026317;28;20388;-35
2022/04/29 10:59:47;;;;;;;;;;;10.50;99.90;;;;;;5041911;28;20049;-35
2022/04/29 11:02:26;;;;;;;8.07;2.90;;;10.60;99.90;;;;;;5041043;28;20411;-35
2022/04/29 11:04:52;;;;;;;5.57;2.87;;;10.60;99.90;;;;;;5041329;28;20143;-36
2022/04/29 11:07:35;;;;;;;6.27;3.37;;;10.70;99.90;;;;;;5025571;28;20370;-35
2022/04/29 11:10:02;;;;;;;5.97;2.73;;;10.70;99.90;;;;;;5042738;28;20138;-36
2022/04/29 11:12:34;;;;;;;5.43;3.22;;;10.80;99.90;;;;;;5038050;28;20048;-35
2022/04/29 11:15:18;;;;;;;;;;;10.80;99.90;;;;;;5039552;28;20104;-35
2022/04/29 11:17:44;;;;;;;6.03;3.43;;;10.90;99.90;;;;;;5022033;28;19975;-35
2022/04/29 11:20:21;;;;;;;4.93;2.67;;;10.90;99.90;;;;;;5040206;28;20049;-35
2022/04/29 11:25:57;;;;;;;4.03;2.28;;;11.00;99.90;;;;;;5039602;28;20565;-35
2022/04/29 11:28:24;;;;;;;3.17;2.13;;;11.00;99.90;;;;;;5023463;28;20423;-35
2022/04/29 11:31:02;;;;;;;5.78;3.10;;;11.00;99.90;;;;;;5040594;28;20056;-36
2022/04/29 11:33:28;;;;;;;5.40;2.88;;;11.00;99.90;;;;;;5039385;28;20041;-35
2022/04/29 11:36:02;;;;;;;5.60;2.80;;;11.20;99.90;;;;;;5042435;28;20448;-36
2022/04/29 11:38:38;;;;;;;4.93;2.03;;;11.00;99.90;;;;;;5025564;28;20048;-35
2022/04/29 11:41:04;;;;;;;6.13;2.00;;;11.10;99.90;;;;;;5041713;28;20128;-36
2022/04/29 11:43:30;;;;;;;8.43;2.42;;;11.10;99.90;;;;;;5039045;28;20140;-36
2022/04/29 11:46:05;;;;;;;5.45;2.50;;;11.10;99.90;;;;;;5042237;28;20045;-36
2022/04/29 11:48:33;;;;;;;5.88;2.20;;;11.10;99.90;;;;;;5025553;28;20044;-35
2022/04/29 11:50:59;;;;;;;7.32;1.92;;;11.10;99.90;;;;;;5042341;28;20080;-36
2022/04/29 11:53:25;;;;;;;6.32;2.53;;;11.20;99.90;;;;;;5041338;28;20536;-35
2022/04/29 11:55:52;;;;;;;4.65;2.50;;;11.30;99.90;;;;;;5042244;28;20468;-35
2022/04/29 11:58:17;;;;;;;5.78;2.60;;;11.30;99.90;;;;;;5023505;28;20321;-36
2022/04/29 12:00:51;;;;;;;5.45;2.67;;;11.30;99.90;;;;;;5041592;28;20519;-35
2022/04/29 12:03:22;;;;;;;6.85;2.70;;;11.20;99.90;;;;;;5036478;28;20372;-36
2022/04/29 12:05:48;;;;;;;4.07;2.20;;;11.30;99.90;;;;;;5040644;28;20045;-36
2022/04/29 12:08:14;;;;;;;9.10;2.60;;;11.30;99.90;;;;;;5025011;28;20278;-35
2022/04/29 12:10:47;;;;;;;4.95;2.10;;;11.30;99.90;;;;;;5040630;28;20563;-36
2022/04/29 12:13:14;;;;;;;6.63;2.00;;;11.30;99.90;;;;;;5039849;28;20507;-36
2022/04/29 12:15:42;;;;;;;6.88;2.40;;;11.30;99.90;;;;;;5039792;28;20052;-35
2022/04/29 12:18:10;;;;;;;11.90;2.70;;;11.30;99.90;;;;;;5025150;28;20048;-36
2022/04/29 12:20:37;;;;;;;4.28;1.95;;;11.20;99.90;;;;;;5041329;28;20392;-35
2022/04/29 12:23:11;;;;;;;4.05;2.20;;;11.30;99.90;;;;;;5042633;28;20080;-36
2022/04/29 12:25:42;;;;;;;10.93;2.88;;;11.30;99.90;;;;;;5039887;28;20041;-36
2022/04/29 12:28:21;;;;;;;3.78;2.47;;;11.30;99.90;;;;;;5025280;28;20045;-36
2022/04/29 12:36:45;;;;;;;4.82;2.10;;;11.40;99.90;;;;;;5028083;28;20076;-36
2022/04/29 12:39:11;;;;;;;3.55;2.15;;;11.40;99.90;;;;;;5042321;28;20190;-35
2022/04/29 12:41:36;;;;;;;4.68;2.05;;;11.40;99.90;;;;;;5039756;28;20678;-36
2022/04/29 12:44:11;;;;;;;5.22;2.47;;;11.40;99.90;;;;;;5041713;28;21554;-35
2022/04/29 12:46:37;;;;;;;7.65;2.40;;;11.40;99.90;;;;;;5028049;28;20409;-36
2022/04/29 12:49:03;;;;;;;5.70;2.00;;;11.40;99.90;;;;;;5038484;28;20182;-35
2022/04/29 12:51:34;;;;;;;4.38;2.17;;;11.40;99.90;;;;;;5041663;28;20442;-36
2022/04/29 12:54:05;;;;;;;5.25;2.30;;;11.50;99.90;;;;;;5041657;28;20049;-36
2022/04/29 12:56:32;;;;;;;4.97;2.40;;;11.60;99.90;;;;;;5028154;28;20083;-36
2022/04/29 12:59:00;;;;;;;4.45;2.10;;;11.50;99.90;;;;;;5038890;28;20041;-35
2022/04/29 13:01:34;;;;;;;6.35;2.20;;;11.60;99.90;;;;;;5044836;28;20518;-35
2022/04/29 13:04:00;;;;;;;5.75;2.33;;;11.60;99.90;;;;;;5042125;28;20044;-36
2022/04/29 13:06:25;;;;;;;5.95;2.20;;;11.60;99.90;;;;;;5032738;28;20040;-36
2022/04/29 13:08:56;;;;;;;4.68;2.25;;;11.60;99.90;;;;;;5039823;28;20053;-36
2022/04/29 13:11:22;;;;;;;5.60;2.10;;;11.70;99.90;;;;;;5042410;28;20033;-36
2022/04/29 13:13:53;;;;;;;4.90;2.20;;;11.70;99.90;;;;;;5042533;28;20037;-36
2022/04/29 13:16:20;;;;;;;4.05;2.00;;;11.70;99.90;;;;;;5032255;28;20037;-37
2022/04/29 13:18:46;;;;;;;4.75;2.38;;;11.80;99.90;;;;;;5038514;28;20123;-36
2022/04/29 13:21:13;;;;;;;7.82;2.30;;;11.80;99.90;;;;;;5044857;28;20055;-35
2022/04/29 13:23:42;;;;;;;4.05;2.10;;;11.80;99.90;;;;;;5032125;28;20339;-36
2022/04/29 13:26:09;;;;;;;4.97;2.00;;;11.90;99.90;;;;;;5037669;28;20385;-36
2022/04/29 13:28:36;;;;;;;6.55;2.42;;;12.10;99.90;;;;;;5035282;28;20045;-36
2022/04/29 13:31:03;;;;;;;5.43;2.13;;;12.00;99.90;;;;;;5043565;28;20048;-36
2022/04/29 13:33:29;;;;;;;4.35;2.58;;;12.10;99.90;;;;;;5042380;28;20048;-36
2022/04/29 13:35:56;;;;;;;5.93;2.67;;;12.10;99.90;;;;;;5044092;28;20044;-36